Time;durP1;ratioP1;P1;durP2;ratioP2;P2;SDS_P1;SDS_P2;PMS_P1;PMS_P2;Temp;Humidity;BMP_temperature;BMP_pressure;BME280_temperature;BME280_humidity;BME280_pressure;Samples;Min_cycle;Max_cycle;Signal;HPM_P1;HPM_P2
2021/12/04 00:01:10;;;;;;;33.70;22.17;;;;;;;3.07;100.00;99579.00;5005452;28;20507;-83
2021/12/04 00:03:40;;;;;;;35.25;24.60;;;;;;;3.08;100.00;99594.78;5007077;28;20044;-83
2021/12/04 00:06:14;;;;;;;38.85;22.73;;;;;;;3.07;100.00;99589.59;4991326;28;20038;-83
2021/12/04 00:08:43;;;;;;;32.88;22.77;;;;;;;3.07;100.00;99579.00;5007920;28;20033;-83
2021/12/04 00:11:09;;;;;;;36.40;22.77;;;;;;;3.06;100.00;99572.88;5000311;28;20050;-82
2021/12/04 00:13:34;;;;;;;38.75;25.63;;;;;;;3.05;100.00;99570.34;4987162;28;20100;-83
2021/12/04 00:15:59;;;;;;;40.05;28.75;;;;;;;3.07;100.00;99557.81;4989677;28;20037;-83
2021/12/04 00:18:25;;;;;;;41.47;28.33;;;;;;;3.05;100.00;99560.63;4987075;28;20053;-83
2021/12/04 00:20:50;;;;;;;40.00;26.98;;;;;;;3.07;100.00;99558.63;4986613;28;20128;-83
2021/12/04 00:23:16;;;;;;;35.38;23.25;;;;;;;3.05;100.00;99552.66;5005664;28;20050;-83
2021/12/04 00:25:41;;;;;;;36.90;23.77;;;;;;;3.04;100.00;99553.63;4985731;28;20129;-83
2021/12/04 00:28:07;;;;;;;39.53;27.98;;;;;;;3.07;100.00;99549.84;5003381;28;20065;-84
2021/12/04 00:30:33;;;;;;;40.28;28.55;;;;;;;3.04;100.00;99545.66;5002507;28;20483;-83
2021/12/04 00:33:05;;;;;;;41.08;23.90;;;;;;;3.06;100.00;99548.19;5006045;28;20072;-84
2021/12/04 00:49:08;;;;;;;39.38;24.55;;;;;;;3.04;100.00;99536.88;5013661;28;20053;-83
2021/12/04 00:51:55;;;;;;;37.80;25.98;;;;;;;3.06;100.00;99534.94;4996437;28;20589;-83
2021/12/04 00:54:25;;;;;;;36.00;22.17;;;;;;;3.04;100.00;99532.41;4990659;28;20047;-83
2021/12/04 00:56:53;;;;;;;36.90;22.88;;;;;;;3.04;100.00;99527.13;5000917;28;20057;-84
2021/12/04 00:59:19;;;;;;;34.67;22.52;;;;;;;3.06;100.00;99529.63;4991273;28;20046;-84
2021/12/04 01:01:45;;;;;;;37.28;24.00;;;;;;;3.06;100.00;99529.63;4979617;28;21300;-84
2021/12/04 01:04:13;;;;;;;36.83;19.98;;;;;;;3.05;100.00;99527.94;4992807;28;20129;-83
2021/12/04 01:06:40;;;;;;;35.30;21.48;;;;;;;3.04;100.00;99516.50;4997578;28;20041;-83
2021/12/04 01:09:08;;;;;;;35.20;21.52;;;;;;;3.06;100.00;99521.69;4982833;28;20495;-84
2021/12/04 01:11:33;;;;;;;36.75;23.15;;;;;;;3.07;100.00;99502.97;4994140;28;20048;-83
2021/12/04 01:13:59;;;;;;;34.30;18.98;;;;;;;3.05;100.00;99506.75;4994252;28;20042;-84
2021/12/04 01:16:24;;;;;;;37.80;24.05;;;;;;;3.06;100.00;99509.25;4997252;28;20117;-84
2021/12/04 01:18:50;;;;;;;32.92;20.73;;;;;;;3.06;100.00;99508.44;4981727;28;20068;-84
2021/12/04 01:21:15;;;;;;;33.55;20.08;;;;;;;3.04;100.00;99521.81;5001608;28;20042;-84
2021/12/04 01:23:40;;;;;;;34.00;20.60;;;;;;;3.05;100.00;99512.03;4972241;28;20096;-84
2021/12/04 01:26:07;;;;;;;36.92;23.02;;;;;;;3.06;100.00;99511.09;4997369;28;20045;-84
2021/12/04 01:28:33;;;;;;;32.88;19.13;;;;;;;3.06;100.00;99514.56;4988444;28;20349;-84
2021/12/04 01:30:58;;;;;;;36.08;22.10;;;;;;;3.11;100.00;99506.19;4994871;28;20100;-83
2021/12/04 01:33:23;;;;;;;31.98;19.95;;;;;;;3.10;100.00;99502.66;4996440;28;20037;-83
2021/12/04 01:35:49;;;;;;;33.92;18.70;;;;;;;3.09;100.00;99500.19;5002997;28;20036;-83
2021/12/04 01:38:14;;;;;;;37.30;22.45;;;;;;;3.11;100.00;99500.88;5003069;28;20049;-83
2021/12/04 01:40:40;;;;;;;35.63;22.33;;;;;;;3.08;100.00;99502.00;4995397;28;20058;-83
2021/12/04 01:43:10;;;;;;;35.83;20.27;;;;;;;3.06;100.00;99509.25;4972386;28;20089;-83
2021/12/04 01:45:42;;;;;;;34.35;20.80;;;;;;;3.05;100.00;99502.31;4991904;28;20050;-82
2021/12/04 01:48:07;;;;;;;34.42;18.52;;;;;;;3.06;100.00;99508.44;4980973;28;20045;-84
2021/12/04 01:50:34;;;;;;;36.92;19.77;;;;;;;3.05;100.00;99512.91;5022785;28;20487;-82
2021/12/04 01:53:00;;;;;;;36.08;21.23;;;;;;;3.08;100.00;99523.22;4996054;28;20081;-83
2021/12/04 01:55:32;;;;;;;38.20;22.92;;;;;;;3.10;100.00;99509.78;4993576;28;20129;-83
2021/12/04 01:58:00;;;;;;;40.35;24.58;;;;;;;3.11;100.00;99509.66;4995639;28;20050;-83
2021/12/04 02:00:28;;;;;;;39.78;22.35;;;;;;;3.10;100.00;99504.50;4992107;28;20038;-83
2021/12/04 02:02:53;;;;;;;42.95;23.77;;;;;;;3.10;100.00;99504.50;4999923;28;20050;-83
2021/12/04 02:05:18;;;;;;;41.45;21.27;;;;;;;3.09;100.00;99502.84;5001205;28;20068;-83
2021/12/04 02:07:46;;;;;;;42.65;24.27;;;;;;;3.10;100.00;99494.72;4998879;28;20045;-83
2021/12/04 02:10:11;;;;;;;46.60;25.85;;;;;;;3.09;100.00;99487.75;4999245;28;20087;-83
2021/12/04 02:12:38;;;;;;;43.78;27.20;;;;;;;3.10;100.00;99477.97;4999595;28;20054;-83
2021/12/04 02:15:05;;;;;;;37.58;20.65;;;;;;;3.07;100.00;99476.47;4995845;28;20053;-84
2021/12/04 02:17:32;;;;;;;46.83;27.00;;;;;;;3.11;100.00;99469.06;4999356;28;20092;-84
2021/12/04 02:20:01;;;;;;;41.72;24.65;;;;;;;3.13;100.00;99475.03;4995212;28;20081;-83
2021/12/04 02:22:26;;;;;;;48.45;28.67;;;;;;;3.14;100.00;99469.59;5002655;28;20104;-83
2021/12/04 02:24:51;;;;;;;47.83;26.50;;;;;;;3.15;100.00;99470.44;4999695;28;20483;-82
2021/12/04 02:27:17;;;;;;;50.30;29.58;;;;;;;3.14;100.00;99468.78;4994330;28;20045;-83
2021/12/04 02:29:48;;;;;;;47.30;26.80;;;;;;;3.12;100.00;99462.78;4992774;28;20578;-84
2021/12/04 02:32:18;;;;;;;48.22;27.95;;;;;;;3.13;100.00;99467.91;5003597;28;20133;-83
2021/12/04 02:34:43;;;;;;;51.17;28.27;;;;;;;3.13;100.00;99456.47;5002139;28;20129;-83
2021/12/04 02:37:09;;;;;;;52.45;27.90;;;;;;;3.12;100.00;99446.88;4996266;28;20056;-84
2021/12/04 02:39:38;;;;;;;57.13;29.50;;;;;;;3.14;100.00;99447.56;4983751;28;20089;-83
2021/12/04 02:42:07;;;;;;;56.70;31.92;;;;;;;3.13;100.00;99440.56;5002487;28;20041;-84
2021/12/04 02:44:40;;;;;;;64.85;33.30;;;;;;;3.13;100.00;99435.28;4999759;28;20486;-82
2021/12/04 02:47:07;;;;;;;59.95;29.30;;;;;;;3.13;100.00;99414.06;4999121;28;20069;-82
2021/12/04 02:49:33;;;;;;;55.55;27.70;;;;;;;3.12;100.00;99412.41;5002366;28;20104;-81
2021/12/04 02:52:08;;;;;;;66.97;34.67;;;;;;;3.12;100.00;99415.06;5001663;28;20096;-81
2021/12/04 02:54:39;;;;;;;62.17;29.00;;;;;;;3.10;100.00;99409.06;4983533;28;20117;-82
2021/12/04 02:57:11;;;;;;;64.13;31.27;;;;;;;3.11;100.00;99408.94;4996385;28;20030;-82
2021/12/04 02:59:37;;;;;;;;;;;;;;;3.12;100.00;99399.97;5002918;28;20045;-82
2021/12/04 03:02:05;;;;;;;73.78;37.95;;;;;;;3.06;100.00;99399.75;4987713;28;19914;-82
2021/12/04 03:04:31;;;;;;;69.90;35.05;;;;;;;3.09;100.00;99396.81;5002236;28;20050;-82
2021/12/04 03:06:57;;;;;;;65.57;31.15;;;;;;;3.09;100.00;99394.16;5001269;28;20422;-82
2021/12/04 03:09:22;;;;;;;71.90;36.35;;;;;;;3.11;100.00;99392.19;5003207;28;20037;-82
2021/12/04 03:11:48;;;;;;;77.32;37.53;;;;;;;3.11;100.00;99379.78;5002251;28;20190;-82
2021/12/04 03:14:13;;;;;;;76.05;34.80;;;;;;;3.12;100.00;99381.44;4996556;28;20743;-82
2021/12/04 03:16:41;;;;;;;70.55;35.85;;;;;;;3.13;100.00;99384.91;4992837;28;20042;-82
2021/12/04 03:19:08;;;;;;;71.35;33.13;;;;;;;3.13;100.00;99380.44;4982959;28;20038;-81
2021/12/04 03:21:36;;;;;;;69.47;30.63;;;;;;;3.13;100.00;99377.78;4990726;28;20038;-82
2021/12/04 03:24:07;;;;;;;75.78;35.60;;;;;;;3.13;100.00;99376.97;4995848;28;20038;-82
2021/12/04 03:26:33;;;;;;;68.30;32.33;;;;;;;3.09;100.00;99370.31;4974868;28;20080;-81
2021/12/04 03:29:02;;;;;;;72.35;34.42;;;;;;;3.11;100.00;99371.00;4989521;28;20045;-83
2021/12/04 03:42:24;;;;;;;74.93;36.08;;;;;;;3.13;100.00;99369.00;4992636;28;20073;-82
2021/12/04 03:44:50;;;;;;;77.35;37.83;;;;;;;3.13;100.00;99361.06;4988112;28;20147;-82
2021/12/04 03:47:16;;;;;;;80.72;36.92;;;;;;;3.16;100.00;99360.75;4995759;28;20046;-82
2021/12/04 03:49:41;;;;;;;86.03;41.13;;;;;;;3.17;100.00;99359.78;4991806;28;20045;-82
2021/12/04 03:52:08;;;;;;;81.50;36.67;;;;;;;3.16;100.00;99350.16;5000661;28;20038;-82
2021/12/04 03:54:35;;;;;;;75.25;34.20;;;;;;;3.13;100.00;99350.44;4994898;28;20490;-82
2021/12/04 03:57:04;;;;;;;81.35;33.53;;;;;;;3.14;100.00;99345.00;4992473;28;20053;-82
2021/12/04 03:59:31;;;;;;;92.25;41.53;;;;;;;3.15;100.00;99353.78;4992818;28;20651;-82
2021/12/04 04:01:56;;;;;;;79.38;36.00;;;;;;;3.15;100.00;99351.13;4994062;28;20080;-82
2021/12/04 04:04:22;;;;;;;92.57;42.72;;;;;;;3.17;100.00;99346.53;4981342;28;20050;-82
2021/12/04 04:06:47;;;;;;;90.00;39.50;;;;;;;3.16;100.00;99343.06;4996442;28;20069;-82
2021/12/04 04:09:12;;;;;;;75.75;28.67;;;;;;;3.13;100.00;99342.50;4978667;28;20491;-81
2021/12/04 04:11:38;;;;;;;87.97;41.13;;;;;;;3.17;100.00;99347.34;4994437;28;20046;-81
2021/12/04 04:14:04;;;;;;;83.65;39.08;;;;;;;3.17;100.00;99347.34;4996581;28;20546;-82
2021/12/04 04:16:31;;;;;;;87.22;37.63;;;;;;;3.17;100.00;99343.88;4978172;28;20368;-82
2021/12/04 04:18:56;;;;;;;86.55;38.85;;;;;;;3.16;100.00;99339.53;4998682;28;20410;-82
2021/12/04 04:21:22;;;;;;;85.88;33.97;;;;;;;3.16;100.00;99339.53;4994947;28;20038;-81
2021/12/04 04:23:48;;;;;;;88.85;36.55;;;;;;;3.18;100.00;99340.22;4998040;28;20058;-81
2021/12/04 04:26:13;;;;;;;90.90;37.55;;;;;;;3.17;100.00;99330.63;4991557;28;20053;-81
2021/12/04 04:28:39;;;;;;;87.40;37.00;;;;;;;3.16;100.00;99328.94;4992096;28;20046;-81
2021/12/04 04:31:05;;;;;;;89.53;34.88;;;;;;;3.15;100.00;99329.94;4989943;28;20165;-82
2021/12/04 04:33:36;;;;;;;84.10;34.83;;;;;;;3.14;100.00;99325.63;4992459;28;20479;-82
2021/12/04 04:36:10;;;;;;;102.25;42.95;;;;;;;3.17;100.00;99325.31;4990943;28;20053;-82
2021/12/04 04:57:42;;;;;;;114.32;43.40;;;;;;;3.13;100.00;99318.63;4991745;28;20104;-82
2021/12/04 05:13:06;;;;;;;153.40;52.42;;;;;;;3.15;100.00;99325.47;4993115;28;20054;-81
2021/12/04 05:20:53;;;;;;;151.10;52.65;;;;;;;3.13;100.00;99318.63;5004729;28;20053;-81
2021/12/04 05:23:21;;;;;;;124.38;46.17;;;;;;;3.13;100.00;99316.00;5009465;28;20062;-82
2021/12/04 05:25:46;;;;;;;132.80;50.45;;;;;;;3.16;100.00;99318.34;5000968;28;20550;-81
2021/12/04 05:28:12;;;;;;;125.45;45.08;;;;;;;3.14;100.00;99318.50;4999831;28;20077;-81
2021/12/04 05:30:37;;;;;;;127.68;49.90;;;;;;;3.14;100.00;99312.38;4982424;28;20487;-82
2021/12/04 05:33:04;;;;;;;140.32;50.70;;;;;;;3.14;100.00;99313.19;4990213;28;20222;-82
2021/12/04 05:35:29;;;;;;;140.35;52.33;;;;;;;3.17;100.00;99318.19;4997057;28;20042;-81
2021/12/04 05:37:55;;;;;;;145.27;52.10;;;;;;;3.19;100.00;99317.19;5009929;28;20053;-81
2021/12/04 05:40:20;;;;;;;148.05;53.40;;;;;;;3.19;100.00;99307.41;5000783;28;20038;-82
2021/12/04 05:42:47;;;;;;;159.27;50.85;;;;;;;3.20;100.00;99308.28;5005454;28;20407;-81
2021/12/04 05:45:22;;;;;;;144.88;47.45;;;;;;;3.19;100.00;99302.13;5001961;28;20411;-81
2021/12/04 05:48:13;;;;;;;150.77;56.95;;;;;;;3.19;100.00;99302.13;4998226;28;20039;-82
2021/12/04 05:55:56;;;;;;;153.23;55.47;;;;;;;3.18;100.00;99295.16;5009291;28;20034;-82
2021/12/04 05:58:28;;;;;;;159.50;55.33;;;;;;;3.19;100.00;99285.38;4988887;28;20383;-82
2021/12/04 06:00:57;;;;;;;148.48;49.10;;;;;;;3.18;100.00;99281.91;5000974;28;20037;-81
2021/12/04 06:03:23;;;;;;;147.82;48.47;;;;;;;3.19;100.00;99280.09;5019698;28;20124;-82
2021/12/04 06:05:48;;;;;;;166.82;57.35;;;;;;;3.18;100.00;99268.66;5009073;28;20408;-82
2021/12/04 06:08:14;;;;;;;148.70;52.08;;;;;;;3.19;100.00;99270.31;5003210;28;20046;-82
2021/12/04 06:10:40;;;;;;;141.05;46.63;;;;;;;3.18;100.00;99271.31;5009247;28;20100;-82
2021/12/04 06:13:06;;;;;;;148.18;50.65;;;;;;;3.17;100.00;99267.81;5009949;28;20180;-82
2021/12/04 06:15:32;;;;;;;168.05;53.90;;;;;;;3.19;100.00;99274.78;4998319;28;20659;-82
2021/12/04 06:17:57;;;;;;;162.20;52.95;;;;;;;3.20;100.00;99269.34;4989863;28;20090;-82
2021/12/04 06:23:08;;;;;;;162.75;55.25;;;;;;;3.19;100.00;99264.19;4999522;28;20247;-82
2021/12/04 06:25:33;;;;;;;165.48;52.90;;;;;;;3.17;100.00;99275.78;5009003;28;20120;-82
2021/12/04 06:27:59;;;;;;;138.10;47.53;;;;;;;3.17;100.00;99267.81;5007555;28;20117;-82
2021/12/04 06:30:26;;;;;;;163.30;51.85;;;;;;;3.19;100.00;99269.47;4990583;28;20041;-82
2021/12/04 06:32:53;;;;;;;168.13;55.92;;;;;;;3.21;100.00;99272.81;5006276;28;20141;-82
2021/12/04 06:35:21;;;;;;;150.32;46.95;;;;;;;3.21;100.00;99270.16;5001525;28;20037;-82
2021/12/04 06:37:48;;;;;;;149.40;47.78;;;;;;;3.20;100.00;99271.16;5006296;28;20050;-82
2021/12/04 06:40:15;;;;;;;153.95;50.50;;;;;;;3.20;100.00;99264.03;5003813;28;20034;-82
2021/12/04 06:42:42;;;;;;;154.98;51.67;;;;;;;3.19;100.00;99264.19;4990450;28;20053;-82
2021/12/04 06:45:09;;;;;;;149.32;46.75;;;;;;;3.20;100.00;99257.91;5003843;28;20084;-82
2021/12/04 06:47:36;;;;;;;165.55;55.83;;;;;;;3.21;100.00;99257.75;4997685;28;20499;-82
2021/12/04 06:50:07;;;;;;;179.18;56.92;;;;;;;3.20;100.00;99260.56;4996168;28;20097;-82
2021/12/04 06:52:33;;;;;;;142.95;47.30;;;;;;;3.20;100.00;99264.03;5002841;28;20049;-82
2021/12/04 06:55:01;;;;;;;152.93;49.13;;;;;;;3.21;100.00;99263.03;5003843;28;20050;-81
2021/12/04 06:57:32;;;;;;;165.50;55.20;;;;;;;3.24;100.00;99267.22;5006606;28;20109;-82
2021/12/04 06:59:58;;;;;;;151.25;46.03;;;;;;;3.22;100.00;99264.69;5003905;28;20510;-82
2021/12/04 07:02:23;;;;;;;149.80;49.13;;;;;;;3.22;100.00;99264.69;4999097;28;20048;-81
2021/12/04 07:04:49;;;;;;;175.02;56.78;;;;;;;3.22;100.00;99263.88;5006035;28;20584;-82
2021/12/04 07:07:15;;;;;;;147.38;45.95;;;;;;;3.21;100.00;99265.69;5010152;28;20038;-82
2021/12/04 07:09:42;;;;;;;160.48;51.70;;;;;;;3.21;100.00;99268.34;4992231;28;20050;-83
2021/12/04 07:12:08;;;;;;;165.68;51.88;;;;;;;3.21;100.00;99270.16;4997135;28;20035;-83
2021/12/04 07:14:34;;;;;;;149.32;47.05;;;;;;;3.21;100.00;99273.66;5007119;28;20044;-82
2021/12/04 07:17:02;;;;;;;170.38;54.30;;;;;;;3.22;100.00;99266.53;4988250;28;20353;-82
2021/12/04 07:19:29;;;;;;;164.95;53.55;;;;;;;3.21;100.00;99262.22;5004107;28;20053;-82
2021/12/04 07:21:54;;;;;;;144.15;50.22;;;;;;;3.20;100.00;99269.34;5008864;28;20095;-82
2021/12/04 07:24:20;;;;;;;164.77;50.58;;;;;;;3.22;100.00;99280.59;5007009;28;20045;-83
2021/12/04 07:26:46;;;;;;;156.20;51.08;;;;;;;3.23;100.00;99276.16;5008713;28;20514;-82
2021/12/04 07:29:11;;;;;;;150.98;50.88;;;;;;;3.24;100.00;99277.81;5007949;28;20038;-83
2021/12/04 07:31:37;;;;;;;164.98;47.70;;;;;;;3.24;100.00;99273.34;5008330;28;20038;-83
2021/12/04 07:34:04;;;;;;;139.18;44.95;;;;;;;3.23;100.00;99263.72;5008832;28;20124;-83
2021/12/04 07:36:30;;;;;;;152.50;50.80;;;;;;;3.24;100.00;99260.09;5008483;28;20087;-82
2021/12/04 07:38:58;;;;;;;133.43;43.25;;;;;;;3.23;100.00;99263.72;5007097;28;20046;-82
2021/12/04 07:41:23;;;;;;;141.38;51.17;;;;;;;3.24;100.00;99264.56;5009413;28;20038;-83
2021/12/04 07:43:49;;;;;;;122.68;43.28;;;;;;;3.25;100.00;99263.56;4971307;28;20119;-82
2021/12/04 07:46:14;;;;;;;127.32;49.10;;;;;;;3.25;100.00;99258.25;5007189;28;20392;-82
2021/12/04 07:48:40;;;;;;;130.98;48.42;;;;;;;3.26;100.00;99254.63;4990619;28;20046;-82
2021/12/04 07:51:06;;;;;;;125.95;49.20;;;;;;;3.24;100.00;99257.44;5008867;28;20038;-82
2021/12/04 07:53:32;;;;;;;120.25;43.60;;;;;;;3.28;100.00;99255.28;4985757;28;20042;-83
2021/12/04 07:55:58;;;;;;;112.95;40.45;;;;;;;3.25;100.00;99264.41;4979823;28;20084;-81
2021/12/04 07:58:23;;;;;;;99.65;40.00;;;;;;;3.26;100.00;99265.25;5007040;28;20045;-82
2021/12/04 08:00:49;;;;;;;100.05;42.17;;;;;;;3.26;100.00;99260.78;5006329;28;20121;-82
2021/12/04 08:03:15;;;;;;;92.07;38.60;;;;;;;3.29;100.00;99262.28;5003942;28;20128;-83
2021/12/04 08:05:41;;;;;;;84.63;36.65;;;;;;;3.27;100.00;99262.41;5002848;28;20087;-82
2021/12/04 08:08:07;;;;;;;83.22;36.05;;;;;;;3.28;100.00;99263.25;5003114;28;20390;-82
2021/12/04 08:10:33;;;;;;;87.95;38.17;;;;;;;3.30;100.00;99262.09;4987952;28;20053;-82
2021/12/04 08:13:02;;;;;;;77.68;35.78;;;;;;;3.29;100.00;99271.06;4997738;28;20080;-82
2021/12/04 08:15:29;;;;;;;81.78;38.42;;;;;;;3.29;100.00;99268.41;5001321;28;20121;-83
2021/12/04 08:17:54;;;;;;;78.43;39.08;;;;;;;3.29;100.00;99263.09;5007527;28;20042;-82
2021/12/04 08:20:20;;;;;;;79.93;38.03;;;;;;;3.32;100.00;99260.16;4990650;28;20084;-82
2021/12/04 08:22:45;;;;;;;73.78;36.05;;;;;;;3.33;100.00;99247.72;4987130;28;20099;-82
2021/12/04 08:25:14;;;;;;;71.30;31.52;;;;;;;3.33;100.00;99245.88;4989736;28;20053;-82
2021/12/04 08:27:40;;;;;;;66.07;31.80;;;;;;;3.35;100.00;99249.22;5003916;28;20038;-83
2021/12/04 08:30:10;;;;;;;65.93;31.23;;;;;;;3.35;100.00;99238.63;4968887;28;20090;-82
2021/12/04 08:32:35;;;;;;;60.75;29.48;;;;;;;3.37;100.00;99244.59;5001787;28;20046;-82
2021/12/04 08:35:02;;;;;;;58.08;29.60;;;;;;;3.36;100.00;99252.69;5003655;28;20064;-82
2021/12/04 08:37:28;;;;;;;57.45;28.00;;;;;;;3.39;100.00;99250.59;5001415;28;20519;-82
2021/12/04 08:39:53;;;;;;;53.20;24.48;;;;;;;3.41;100.00;99244.28;5004543;28;20069;-82
2021/12/04 08:42:19;;;;;;;51.72;23.10;;;;;;;3.39;100.00;99240.00;4999023;28;20038;-82
2021/12/04 08:44:46;;;;;;;51.08;24.23;;;;;;;3.39;100.00;99245.28;5001257;28;20257;-82
2021/12/04 08:47:11;;;;;;;51.33;23.08;;;;;;;3.41;100.00;99241.63;5001819;28;20042;-82
2021/12/04 08:49:37;;;;;;;49.63;24.75;;;;;;;3.43;100.00;99247.63;5003529;28;20364;-82
2021/12/04 08:52:04;;;;;;;47.55;25.00;;;;;;;3.44;100.00;99247.47;4987799;28;20064;-82
2021/12/04 08:54:31;;;;;;;45.97;23.55;;;;;;;3.44;100.00;99238.69;4991622;28;20039;-83
2021/12/04 08:56:57;;;;;;;45.60;22.77;;;;;;;3.44;100.00;99238.69;5002786;28;20420;-83
2021/12/04 08:59:22;;;;;;;45.03;23.85;;;;;;;3.48;100.00;99243.53;4983739;28;20042;-82
2021/12/04 09:01:49;;;;;;;45.80;23.77;;;;;;;3.48;100.00;99248.84;5005707;28;20054;-83
2021/12/04 09:04:23;;;;;;;45.83;23.55;;;;;;;3.51;100.00;99240.56;5002772;28;20096;-83
2021/12/04 09:06:50;;;;;;;46.65;24.00;;;;;;;3.54;100.00;99244.69;5004923;28;20112;-82
2021/12/04 09:09:16;;;;;;;39.85;21.08;;;;;;;3.53;100.00;99241.22;5000585;28;20057;-82
2021/12/04 09:11:46;;;;;;;37.08;19.35;;;;;;;3.54;100.00;99236.72;5003748;28;20430;-83
2021/12/04 09:14:13;;;;;;;40.47;19.20;;;;;;;3.52;100.00;99234.25;5008150;28;20037;-83
2021/12/04 09:16:39;;;;;;;35.47;19.65;;;;;;;3.56;100.00;99229.47;5007148;28;20056;-83
2021/12/04 09:19:04;;;;;;;35.45;18.65;;;;;;;3.54;100.00;99229.63;5008827;28;20049;-83
2021/12/04 09:21:30;;;;;;;33.90;19.10;;;;;;;3.56;100.00;99230.28;4976217;28;20043;-82
2021/12/04 09:24:15;;;;;;;41.47;19.40;;;;;;;3.58;100.00;99217.72;5005226;28;20406;-83
2021/12/04 09:26:54;;;;;;;37.45;17.75;;;;;;;3.55;100.00;99217.19;5006861;28;20068;-82
2021/12/04 09:59:12;;;;;;;37.17;18.23;;;;;;;3.62;100.00;99212.91;4977474;28;20557;-83
2021/12/04 10:02:24;;;;;;;32.78;17.33;;;;;;;3.77;100.00;99173.34;5008899;28;20045;-84
2021/12/04 10:13:59;;;;;;;34.10;17.05;;;;;;;3.84;100.00;99153.16;5025896;28;20053;-83
2021/12/04 10:16:45;;;;;;;32.92;18.25;;;;;;;3.82;100.00;99155.94;5006534;28;20050;-84
2021/12/04 10:22:04;;;;;;;32.75;17.95;;;;;;;3.85;100.00;99138.88;5002024;28;20034;-83
2021/12/04 10:33:18;;;;;;;30.90;17.50;;;;;;;3.99;100.00;99118.84;5019708;28;20584;-83
2021/12/04 10:35:47;;;;;;;31.10;17.20;;;;;;;4.00;100.00;99118.69;4993410;28;20619;-83
2021/12/04 10:38:18;;;;;;;34.73;17.77;;;;;;;4.03;100.00;99122.84;5010068;28;20450;-83
2021/12/04 10:40:46;;;;;;;31.20;17.60;;;;;;;4.04;100.00;99117.38;5005745;28;20046;-82
2021/12/04 10:43:16;;;;;;;26.85;16.95;;;;;;;4.05;100.00;99121.66;5004426;28;20494;-83
2021/12/04 10:45:46;;;;;;;32.35;17.42;;;;;;;4.05;100.00;99115.53;5003014;28;20449;-83
2021/12/04 10:48:17;;;;;;;28.65;15.45;;;;;;;4.09;100.00;99113.41;4991890;28;20061;-83
2021/12/04 10:53:34;;;;;;;29.83;18.05;;;;;;;4.15;100.00;99100.31;5002250;28;20060;-83
2021/12/04 11:01:48;;;;;;;22.88;16.30;;;;;;;4.16;100.00;99088.69;5037115;28;20100;-82
2021/12/04 11:26:54;;;;;;;26.02;17.67;;;;;;;4.24;100.00;99062.13;4979200;28;20405;-83
2021/12/04 11:42:39;;;;;;;20.88;15.32;;;;;;;4.34;100.00;99021.28;5000857;28;20073;-82
2021/12/04 11:45:18;;;;;;;23.30;16.23;;;;;;;4.33;100.00;99041.72;4989467;28;20089;-83
2021/12/04 11:47:53;;;;;;;;;;;;;;;4.35;100.00;99047.69;5007108;28;20046;-85
2021/12/04 11:50:50;;;;;;;20.80;14.90;;;;;;;4.28;100.00;98986.44;4998637;28;19940;-81
2021/12/04 11:53:17;;;;;;;21.10;15.75;;;;;;;4.28;100.00;98985.63;5027796;28;20057;-81
2021/12/04 11:55:45;;;;;;;21.35;15.93;;;;;;;4.33;100.00;98982.47;4993920;28;20053;-82
2021/12/04 11:58:27;;;;;;;24.13;19.85;;;;;;;4.40;100.00;98984.28;5003820;28;20057;-82
2021/12/04 12:00:59;;;;;;;25.75;17.52;;;;;;;4.37;100.00;98983.78;5032522;28;20065;-82
2021/12/04 12:03:30;;;;;;;23.95;17.83;;;;;;;4.36;100.00;98977.66;5001873;28;20883;-82
2021/12/04 12:05:59;;;;;;;24.88;19.00;;;;;;;4.43;100.00;98977.78;5003115;28;20050;-82
2021/12/04 12:08:32;;;;;;;22.88;16.55;;;;;;;4.43;100.00;98978.66;5003395;28;20823;-82
2021/12/04 12:11:09;;;;;;;23.55;17.27;;;;;;;4.45;100.00;98973.16;4999039;28;20116;-82
2021/12/04 12:13:38;;;;;;;23.08;17.50;;;;;;;4.45;100.00;98965.19;5000910;28;20049;-84
2021/12/04 12:16:04;;;;;;;23.25;17.30;;;;;;;4.48;100.00;98964.84;5006081;28;20103;-84
2021/12/04 12:18:41;;;;;;;21.00;15.52;;;;;;;4.45;100.00;98955.38;5005119;28;20126;-82
2021/12/04 12:21:10;;;;;;;21.70;17.17;;;;;;;4.43;100.00;98961.84;5031153;28;20684;-82
2021/12/04 12:26:56;;;;;;;29.80;21.83;;;;;;;4.46;100.00;98950.88;4998643;28;20080;-82
2021/12/04 12:32:58;;;;;;;31.83;24.85;;;;;;;4.44;100.00;98945.75;5022843;28;20458;-82
2021/12/04 12:38:56;;;;;;;31.98;22.88;;;;;;;4.48;100.00;98954.22;5024470;28;20100;-84
2021/12/04 12:41:30;;;;;;;37.05;24.33;;;;;;;4.46;100.00;98951.75;4982555;28;20133;-83
2021/12/04 12:44:10;;;;;;;33.25;22.75;;;;;;;4.50;100.00;98949.56;4991708;28;20054;-83
2021/12/04 12:46:43;;;;;;;33.85;25.67;;;;;;;4.54;100.00;98937.59;4990386;28;20084;-83
2021/12/04 12:49:25;;;;;;;34.08;24.55;;;;;;;4.55;100.00;98939.28;4994862;28;20554;-83
2021/12/04 12:51:53;;;;;;;34.78;23.25;;;;;;;4.49;100.00;98942.59;4990156;28;20076;-83
2021/12/04 12:54:32;;;;;;;35.75;25.67;;;;;;;4.52;100.00;98939.63;4994373;28;20045;-82
2021/12/04 12:57:18;;;;;;;33.72;24.98;;;;;;;4.52;100.00;98945.75;4994508;28;20101;-82
2021/12/04 13:11:44;;;;;;;35.63;23.30;;;;;;;4.50;100.00;98912.38;5030076;28;20053;-85
2021/12/04 13:14:16;;;;;;;31.20;20.70;;;;;;;4.47;100.00;98904.75;5034284;28;20140;-82
2021/12/04 13:16:43;;;;;;;36.67;24.35;;;;;;;4.54;100.00;98903.06;4984232;28;20073;-82
2021/12/04 13:19:13;;;;;;;33.33;23.30;;;;;;;4.52;100.00;98897.09;5001781;28;20414;-83
2021/12/04 13:21:42;;;;;;;34.00;21.88;;;;;;;4.55;100.00;98890.63;4990664;28;20045;-83
2021/12/04 13:24:10;;;;;;;33.28;23.75;;;;;;;4.56;100.00;98892.28;4992248;28;20074;-83
2021/12/04 13:26:42;;;;;;;33.43;23.73;;;;;;;4.53;100.00;98894.25;5008049;28;20054;-82
2021/12/04 13:29:09;;;;;;;33.78;25.65;;;;;;;4.54;100.00;98895.09;4994457;28;20037;-83
2021/12/04 13:31:39;;;;;;;33.85;22.27;;;;;;;4.52;100.00;98894.44;5003052;28;20034;-83
2021/12/04 13:34:07;;;;;;;33.58;23.33;;;;;;;4.51;100.00;98890.13;4999451;28;20077;-83
2021/12/04 13:36:33;;;;;;;28.33;17.02;;;;;;;4.52;100.00;98897.09;5005574;28;20038;-83
2021/12/04 13:39:03;;;;;;;29.92;20.38;;;;;;;4.48;100.00;98893.13;5004774;28;20380;-82
2021/12/04 13:41:29;;;;;;;32.28;21.30;;;;;;;4.51;100.00;98885.63;4999702;28;20117;-83
2021/12/04 13:43:58;;;;;;;31.70;22.83;;;;;;;4.53;100.00;98888.13;5001245;28;20049;-83
2021/12/04 13:46:24;;;;;;;31.38;21.38;;;;;;;4.52;100.00;98894.44;5005481;28;20450;-83
2021/12/04 13:48:50;;;;;;;32.00;20.80;;;;;;;4.53;100.00;98894.25;4996029;28;20034;-83
2021/12/04 13:51:16;;;;;;;31.20;20.92;;;;;;;4.55;100.00;98891.44;4982011;28;20046;-83
2021/12/04 13:53:45;;;;;;;29.92;20.30;;;;;;;4.50;100.00;98889.28;5004601;28;20050;-83
2021/12/04 13:56:13;;;;;;;;;;;;;;;4.51;100.00;98884.81;5002350;28;20165;-83
2021/12/04 13:58:54;;;;;;;32.83;21.30;;;;;;;4.46;100.00;98882.69;5003056;28;19921;-83
2021/12/04 14:01:21;;;;;;;31.27;20.35;;;;;;;4.49;100.00;98881.50;5040897;28;20042;-83
2021/12/04 14:03:47;;;;;;;30.67;21.30;;;;;;;4.51;100.00;98882.97;5007936;28;20574;-84
2021/12/04 14:06:18;;;;;;;32.58;22.85;;;;;;;4.51;100.00;98884.81;5011359;28;20073;-83
2021/12/04 14:09:03;;;;;;;31.98;22.55;;;;;;;4.49;100.00;98881.50;5006682;28;20557;-83
2021/12/04 14:11:34;;;;;;;34.53;23.58;;;;;;;4.47;100.00;98880.84;5010668;28;20133;-83
2021/12/04 14:14:12;;;;;;;33.05;20.98;;;;;;;4.41;100.00;98884.19;4988042;28;20499;-83
2021/12/04 14:16:37;;;;;;;37.28;24.88;;;;;;;4.43;100.00;98888.34;5005902;28;20053;-83
2021/12/04 14:19:15;;;;;;;33.88;23.23;;;;;;;4.43;100.00;98883.03;5004598;28;20056;-84
2021/12/04 14:21:41;;;;;;;36.67;25.48;;;;;;;4.40;100.00;98883.38;5008584;28;20402;-82
2021/12/04 14:24:07;;;;;;;41.97;24.65;;;;;;;4.45;100.00;98878.34;5008311;28;20052;-83
2021/12/04 14:26:33;;;;;;;43.70;27.73;;;;;;;4.44;100.00;98876.72;4991986;28;20041;-83
2021/12/04 14:28:58;;;;;;;37.20;24.25;;;;;;;4.41;100.00;98882.38;5005561;28;20100;-84